QTR663 VCBI-OTHH
Flight info
| Callsign | QTR663 |
|---|---|
| Flight time | N/A |
| Altitude | 38000 |
| Route | KAT R461 MDI M300 OSIRI/N0485F400 M300 EMURU N563 SODEX DCT UMIBU/N0484F340 P899 TOVOX |
| Aircraft | A35K/H-SDE2E3GHIJ3J4J5LM1ORWXY/LB1D1 |
Departure
| Time | N/A |
|---|---|
| Airport | Bandaranaike International Colombo Airport (VCBI) |
Arrival
| Time | 2026-05-08 05:36 |
|---|---|
| Airport | Hamad International Airport (OTHH) |
| Time | Latitude | Longitude | Altitude | Speed | Heading |
|---|---|---|---|---|---|
| 2026-05-08 05:16 | 24.72496 | 53.10622 | 29412 ft | 444 kts | 282° |
| 2026-05-08 05:16 | 24.73272 | 53.07469 | 28903 ft | 440 kts | 282° |
| 2026-05-08 05:16 | 24.74081 | 53.04180 | 28384 ft | 437 kts | 282° |
| 2026-05-08 05:16 | 24.74863 | 53.01001 | 27887 ft | 433 kts | 282° |
| 2026-05-08 05:17 | 24.75740 | 52.97423 | 27319 ft | 430 kts | 282° |
| 2026-05-08 05:17 | 24.77285 | 52.91112 | 26329 ft | 424 kts | 282° |
| 2026-05-08 05:17 | 24.78800 | 52.84909 | 25323 ft | 419 kts | 282° |
| 2026-05-08 05:17 | 24.80313 | 52.78702 | 24316 ft | 416 kts | 282° |
| 2026-05-08 05:18 | 24.81802 | 52.72583 | 23271 ft | 413 kts | 282° |
| 2026-05-08 05:18 | 24.83277 | 52.66513 | 22214 ft | 407 kts | 282° |
| 2026-05-08 05:18 | 24.84729 | 52.60525 | 21214 ft | 401 kts | 282° |
| 2026-05-08 05:18 | 24.86149 | 52.54666 | 20252 ft | 395 kts | 282° |
| 2026-05-08 05:19 | 24.87554 | 52.48839 | 19262 ft | 391 kts | 283° |
| 2026-05-08 05:19 | 24.88947 | 52.43056 | 18274 ft | 389 kts | 283° |
| 2026-05-08 05:19 | 24.89586 | 52.37245 | 17201 ft | 382 kts | 269° |
| 2026-05-08 05:19 | 24.89659 | 52.31386 | 16159 ft | 377 kts | 269° |
| 2026-05-08 05:20 | 24.89663 | 52.25655 | 15108 ft | 373 kts | 265° |
| 2026-05-08 05:20 | 24.89271 | 52.20001 | 14140 ft | 368 kts | 264° |
| 2026-05-08 05:20 | 24.88852 | 52.14409 | 13100 ft | 363 kts | 264° |
| 2026-05-08 05:20 | 24.88890 | 52.09060 | 12455 ft | 349 kts | 287° |
| 2026-05-08 05:21 | 24.91938 | 52.05296 | 12044 ft | 327 kts | 337° |
| 2026-05-08 05:21 | 24.96132 | 52.03655 | 11557 ft | 311 kts | 341° |
| 2026-05-08 05:21 | 25.00055 | 52.02077 | 11333 ft | 310 kts | 339° |
| 2026-05-08 05:21 | 25.04176 | 52.00324 | 11083 ft | 308 kts | 339° |
| 2026-05-08 05:22 | 25.08163 | 51.98606 | 10760 ft | 307 kts | 339° |
| 2026-05-08 05:22 | 25.12092 | 51.96891 | 10193 ft | 302 kts | 339° |
| 2026-05-08 05:22 | 25.16001 | 51.95191 | 9687 ft | 299 kts | 338° |
| 2026-05-08 05:22 | 25.19793 | 51.93529 | 9192 ft | 296 kts | 338° |
| 2026-05-08 05:23 | 25.23603 | 51.91861 | 8707 ft | 294 kts | 338° |
| 2026-05-08 05:23 | 25.27366 | 51.90236 | 8230 ft | 292 kts | 338° |
| 2026-05-08 05:23 | 25.31185 | 51.88613 | 7749 ft | 290 kts | 338° |
| 2026-05-08 05:23 | 25.34653 | 51.86471 | 7279 ft | 285 kts | 309° |
| 2026-05-08 05:24 | 25.35551 | 51.82406 | 6951 ft | 281 kts | 257° |
| 2026-05-08 05:24 | 25.34117 | 51.78389 | 6952 ft | 282 kts | 248° |
| 2026-05-08 05:24 | 25.32654 | 51.74357 | 6949 ft | 282 kts | 246° |
| 2026-05-08 05:24 | 25.29842 | 51.71474 | 6943 ft | 283 kts | 197° |
| 2026-05-08 05:25 | 25.26016 | 51.72122 | 6721 ft | 285 kts | 155° |
| 2026-05-08 05:25 | 25.22447 | 51.73879 | 6221 ft | 285 kts | 158° |
| 2026-05-08 05:25 | 25.18768 | 51.75544 | 5997 ft | 286 kts | 159° |
| 2026-05-08 05:25 | 25.15602 | 51.76944 | 6082 ft | 285 kts | 159° |
| 2026-05-08 05:26 | 25.13768 | 51.77750 | 5985 ft | 275 kts | 159° |
| 2026-05-08 05:26 | 25.12019 | 51.78524 | 5816 ft | 266 kts | 160° |
| 2026-05-08 05:26 | 25.10315 | 51.79268 | 5580 ft | 260 kts | 159° |
| 2026-05-08 05:26 | 25.08654 | 51.79993 | 5336 ft | 255 kts | 159° |
| 2026-05-08 05:27 | 25.07006 | 51.80713 | 5095 ft | 251 kts | 159° |
| 2026-05-08 05:27 | 25.05396 | 51.81419 | 4875 ft | 246 kts | 159° |
| 2026-05-08 05:27 | 25.03850 | 51.82081 | 4752 ft | 237 kts | 160° |
| 2026-05-08 05:27 | 25.02293 | 51.82520 | 4730 ft | 221 kts | 176° |
| 2026-05-08 05:28 | 25.00836 | 51.82379 | 4729 ft | 209 kts | 198° |
| 2026-05-08 05:28 | 24.99588 | 51.81602 | 4764 ft | 207 kts | 224° |
| 2026-05-08 05:28 | 24.98811 | 51.80286 | 4751 ft | 206 kts | 252° |
| 2026-05-08 05:28 | 24.98715 | 51.78728 | 4751 ft | 208 kts | 282° |
| 2026-05-08 05:29 | 24.99480 | 51.77411 | 4670 ft | 208 kts | 320° |
| 2026-05-08 05:29 | 25.00652 | 51.76485 | 4376 ft | 207 kts | 326° |
| 2026-05-08 05:29 | 25.01837 | 51.75601 | 4093 ft | 205 kts | 326° |
| 2026-05-08 05:29 | 25.03019 | 51.74687 | 3940 ft | 202 kts | 325° |
| 2026-05-08 05:30 | 25.04153 | 51.73788 | 3839 ft | 201 kts | 325° |
| 2026-05-08 05:30 | 25.05272 | 51.72886 | 3750 ft | 200 kts | 325° |
| 2026-05-08 05:30 | 25.06361 | 51.72001 | 3665 ft | 188 kts | 325° |
| 2026-05-08 05:30 | 25.07382 | 51.71167 | 3573 ft | 177 kts | 325° |
| 2026-05-08 05:31 | 25.08391 | 51.70420 | 3429 ft | 174 kts | 332° |
| 2026-05-08 05:31 | 25.09479 | 51.69845 | 3216 ft | 173 kts | 339° |
| 2026-05-08 05:31 | 25.10592 | 51.69327 | 2985 ft | 173 kts | 339° |
| 2026-05-08 05:31 | 25.11696 | 51.68802 | 2756 ft | 172 kts | 338° |
| 2026-05-08 05:32 | 25.12772 | 51.68313 | 2566 ft | 167 kts | 340° |
| 2026-05-08 05:32 | 25.13851 | 51.67843 | 2333 ft | 166 kts | 341° |
| 2026-05-08 05:32 | 25.14922 | 51.67369 | 2121 ft | 165 kts | 340° |
| 2026-05-08 05:32 | 25.15986 | 51.66893 | 1924 ft | 163 kts | 342° |
| 2026-05-08 05:33 | 25.17019 | 51.66438 | 1713 ft | 158 kts | 343° |
| 2026-05-08 05:33 | 25.18034 | 51.65992 | 1525 ft | 156 kts | 343° |
| 2026-05-08 05:33 | 25.19001 | 51.65563 | 1317 ft | 144 kts | 342° |
| 2026-05-08 05:33 | 25.19895 | 51.65167 | 1143 ft | 133 kts | 343° |
| 2026-05-08 05:34 | 25.20723 | 51.64801 | 964 ft | 125 kts | 344° |
| 2026-05-08 05:34 | 25.21528 | 51.64446 | 833 ft | 125 kts | 342° |
| 2026-05-08 05:34 | 25.22345 | 51.64123 | 706 ft | 128 kts | 341° |
| 2026-05-08 05:34 | 25.23201 | 51.63752 | 556 ft | 137 kts | 337° |
| 2026-05-08 05:35 | 25.24095 | 51.63349 | 405 ft | 140 kts | 337° |
| 2026-05-08 05:35 | 25.24985 | 51.62949 | 211 ft | 135 kts | 338° |
| 2026-05-08 05:35 | 25.25841 | 51.62568 | 41 ft | 128 kts | 339° |
| 2026-05-08 05:35 | 25.26577 | 51.62242 | 28 ft | 97 kts | 338° |
| 2026-05-08 05:36 | 25.27100 | 51.62010 | 27 ft | 64 kts | 338° |
| 2026-05-08 05:36 | 25.27450 | 51.61855 | 29 ft | 40 kts | 338° |
| 2026-05-08 05:36 | 25.27582 | 51.61783 | 29 ft | 17 kts | 315° |
| 2026-05-08 05:36 | 25.27582 | 51.61662 | 28 ft | 17 kts | 250° |
| 2026-05-08 05:37 | 25.27490 | 51.61632 | 28 ft | 16 kts | 158° |
| 2026-05-08 05:37 | 25.27380 | 51.61682 | 28 ft | 19 kts | 159° |
| 2026-05-08 05:37 | 25.27249 | 51.61739 | 28 ft | 22 kts | 158° |
| 2026-05-08 05:37 | 25.27114 | 51.61776 | 28 ft | 10 kts | 201° |
| 2026-05-08 05:38 | 25.27090 | 51.61725 | 28 ft | 12 kts | 249° |
| 2026-05-08 05:38 | 25.27053 | 51.61621 | 28 ft | 16 kts | 249° |
| 2026-05-08 05:38 | 25.27008 | 51.61500 | 28 ft | 18 kts | 248° |
| 2026-05-08 05:38 | 25.26944 | 51.61436 | 28 ft | 10 kts | 194° |
| 2026-05-08 05:39 | 25.26866 | 51.61407 | 28 ft | 13 kts | 206° |
| 2026-05-08 05:39 | 25.26774 | 51.61361 | 28 ft | 15 kts | 202° |
| 2026-05-08 05:39 | 25.26712 | 51.61325 | 28 ft | 9 kts | 221° |
| 2026-05-08 05:39 | 25.26683 | 51.61268 | 28 ft | 8 kts | 248° |
| 2026-05-08 05:40 | 25.26672 | 51.61240 | 28 ft | 0 kts | 248° |